sensor_id;sensor_type;location;lat;lon;timestamp;P1;durP1;ratioP1;P2;durP2;ratioP2
7247;SDS011;3665;51.034;13.642;2022-08-19T00:03:38;19.47;;;17.53;;
7247;SDS011;3665;51.034;13.642;2022-08-19T00:08:22;20.83;;;18.93;;
7247;SDS011;3665;51.034;13.642;2022-08-19T00:13:07;22.53;;;20.43;;
7247;SDS011;3665;51.034;13.642;2022-08-19T00:17:53;21.50;;;19.53;;
7247;SDS011;3665;51.034;13.642;2022-08-19T00:22:47;23.07;;;20.83;;
7247;SDS011;3665;51.034;13.642;2022-08-19T00:27:31;23.60;;;21.07;;
7247;SDS011;3665;51.034;13.642;2022-08-19T00:32:14;20.03;;;18.13;;
7247;SDS011;3665;51.034;13.642;2022-08-19T00:37:01;21.70;;;19.70;;
7247;SDS011;3665;51.034;13.642;2022-08-19T00:41:49;21.10;;;19.00;;
7247;SDS011;3665;51.034;13.642;2022-08-19T00:46:33;22.23;;;20.10;;
7247;SDS011;3665;51.034;13.642;2022-08-19T00:51:19;21.87;;;19.87;;
7247;SDS011;3665;51.034;13.642;2022-08-19T00:56:05;24.57;;;21.47;;
7247;SDS011;3665;51.034;13.642;2022-08-19T01:00:50;23.70;;;21.50;;
7247;SDS011;3665;51.034;13.642;2022-08-19T01:05:33;21.83;;;19.67;;
7247;SDS011;3665;51.034;13.642;2022-08-19T01:10:20;22.43;;;20.43;;
7247;SDS011;3665;51.034;13.642;2022-08-19T01:15:09;22.20;;;20.20;;
7247;SDS011;3665;51.034;13.642;2022-08-19T01:19:54;23.60;;;21.40;;
7247;SDS011;3665;51.034;13.642;2022-08-19T01:24:40;22.33;;;20.33;;
7247;SDS011;3665;51.034;13.642;2022-08-19T01:29:30;23.87;;;21.67;;
7247;SDS011;3665;51.034;13.642;2022-08-19T01:34:14;23.17;;;21.00;;
7247;SDS011;3665;51.034;13.642;2022-08-19T01:38:58;23.03;;;20.77;;
7247;SDS011;3665;51.034;13.642;2022-08-19T01:43:44;23.63;;;21.33;;
7247;SDS011;3665;51.034;13.642;2022-08-19T01:48:48;23.67;;;21.37;;
7247;SDS011;3665;51.034;13.642;2022-08-19T01:53:32;21.40;;;19.40;;
7247;SDS011;3665;51.034;13.642;2022-08-19T01:58:16;22.20;;;20.20;;
7247;SDS011;3665;51.034;13.642;2022-08-19T02:03:04;20.53;;;18.73;;
7247;SDS011;3665;51.034;13.642;2022-08-19T02:07:48;21.27;;;19.30;;
7247;SDS011;3665;51.034;13.642;2022-08-19T02:12:33;22.23;;;20.13;;
7247;SDS011;3665;51.034;13.642;2022-08-19T02:17:18;21.97;;;20.00;;
7247;SDS011;3665;51.034;13.642;2022-08-19T02:22:03;22.03;;;19.93;;
7247;SDS011;3665;51.034;13.642;2022-08-19T02:26:47;21.53;;;19.57;;
7247;SDS011;3665;51.034;13.642;2022-08-19T02:31:31;21.13;;;19.33;;
7247;SDS011;3665;51.034;13.642;2022-08-19T02:36:16;23.07;;;20.67;;
7247;SDS011;3665;51.034;13.642;2022-08-19T02:41:05;20.87;;;19.00;;
7247;SDS011;3665;51.034;13.642;2022-08-19T02:45:54;21.33;;;19.40;;
7247;SDS011;3665;51.034;13.642;2022-08-19T02:50:38;20.67;;;18.87;;
7247;SDS011;3665;51.034;13.642;2022-08-19T02:55:34;21.47;;;19.57;;
7247;SDS011;3665;51.034;13.642;2022-08-19T03:00:28;19.30;;;17.50;;
7247;SDS011;3665;51.034;13.642;2022-08-19T03:05:14;21.57;;;19.67;;
7247;SDS011;3665;51.034;13.642;2022-08-19T03:09:58;22.13;;;20.23;;
7247;SDS011;3665;51.034;13.642;2022-08-19T03:14:43;24.20;;;22.00;;
7247;SDS011;3665;51.034;13.642;2022-08-19T03:19:30;21.83;;;19.83;;
7247;SDS011;3665;51.034;13.642;2022-08-19T03:24:14;22.43;;;20.43;;
7247;SDS011;3665;51.034;13.642;2022-08-19T03:29:00;24.27;;;21.80;;
7247;SDS011;3665;51.034;13.642;2022-08-19T03:33:46;22.03;;;20.07;;
7247;SDS011;3665;51.034;13.642;2022-08-19T03:38:33;23.53;;;21.60;;
7247;SDS011;3665;51.034;13.642;2022-08-19T03:43:17;22.43;;;20.33;;
7247;SDS011;3665;51.034;13.642;2022-08-19T03:48:00;20.97;;;19.07;;
7247;SDS011;3665;51.034;13.642;2022-08-19T03:52:47;22.03;;;20.03;;
7247;SDS011;3665;51.034;13.642;2022-08-19T03:57:33;21.33;;;19.50;;
7247;SDS011;3665;51.034;13.642;2022-08-19T04:02:17;20.20;;;18.37;;
7247;SDS011;3665;51.034;13.642;2022-08-19T04:07:01;20.80;;;18.97;;
7247;SDS011;3665;51.034;13.642;2022-08-19T04:11:46;19.83;;;18.03;;
7247;SDS011;3665;51.034;13.642;2022-08-19T04:16:34;21.63;;;19.70;;
7247;SDS011;3665;51.034;13.642;2022-08-19T04:21:19;22.20;;;20.00;;
7247;SDS011;3665;51.034;13.642;2022-08-19T04:26:04;21.57;;;19.47;;
7247;SDS011;3665;51.034;13.642;2022-08-19T04:30:54;22.43;;;20.33;;
7247;SDS011;3665;51.034;13.642;2022-08-19T04:35:42;21.17;;;19.13;;
7247;SDS011;3665;51.034;13.642;2022-08-19T04:40:27;21.30;;;19.50;;
7247;SDS011;3665;51.034;13.642;2022-08-19T04:45:28;22.30;;;20.30;;
7247;SDS011;3665;51.034;13.642;2022-08-19T04:50:24;22.83;;;20.83;;
7247;SDS011;3665;51.034;13.642;2022-08-19T04:55:10;23.23;;;21.13;;
7247;SDS011;3665;51.034;13.642;2022-08-19T04:59:56;23.23;;;21.00;;
7247;SDS011;3665;51.034;13.642;2022-08-19T05:04:40;21.80;;;19.67;;
7247;SDS011;3665;51.034;13.642;2022-08-19T05:09:24;22.80;;;20.60;;
7247;SDS011;3665;51.034;13.642;2022-08-19T05:14:10;22.67;;;20.53;;
7247;SDS011;3665;51.034;13.642;2022-08-19T05:18:55;23.13;;;21.03;;
7247;SDS011;3665;51.034;13.642;2022-08-19T05:23:56;24.53;;;22.23;;
7247;SDS011;3665;51.034;13.642;2022-08-19T05:28:40;21.50;;;19.60;;
7247;SDS011;3665;51.034;13.642;2022-08-19T05:33:25;23.67;;;21.57;;
7247;SDS011;3665;51.034;13.642;2022-08-19T05:38:09;22.37;;;20.23;;
7247;SDS011;3665;51.034;13.642;2022-08-19T05:42:54;19.90;;;17.90;;
7247;SDS011;3665;51.034;13.642;2022-08-19T05:47:38;20.80;;;18.93;;
7247;SDS011;3665;51.034;13.642;2022-08-19T05:52:24;18.27;;;16.67;;
7247;SDS011;3665;51.034;13.642;2022-08-19T05:57:11;15.37;;;14.07;;
7247;SDS011;3665;51.034;13.642;2022-08-19T06:01:55;15.30;;;13.80;;
7247;SDS011;3665;51.034;13.642;2022-08-19T06:06:39;13.83;;;12.63;;
7247;SDS011;3665;51.034;13.642;2022-08-19T06:11:32;13.77;;;12.57;;
7247;SDS011;3665;51.034;13.642;2022-08-19T06:16:18;12.83;;;11.73;;
7247;SDS011;3665;51.034;13.642;2022-08-19T06:21:04;14.37;;;13.00;;
7247;SDS011;3665;51.034;13.642;2022-08-19T06:25:48;14.43;;;12.37;;
7247;SDS011;3665;51.034;13.642;2022-08-19T06:30:33;15.87;;;12.97;;
7247;SDS011;3665;51.034;13.642;2022-08-19T06:35:16;13.40;;;12.10;;
7247;SDS011;3665;51.034;13.642;2022-08-19T06:40:00;14.27;;;11.93;;
7247;SDS011;3665;51.034;13.642;2022-08-19T06:44:45;13.87;;;12.60;;
7247;SDS011;3665;51.034;13.642;2022-08-19T06:49:35;13.80;;;12.67;;
7247;SDS011;3665;51.034;13.642;2022-08-19T06:54:19;16.60;;;14.13;;
7247;SDS011;3665;51.034;13.642;2022-08-19T06:59:05;17.07;;;15.43;;
7247;SDS011;3665;51.034;13.642;2022-08-19T07:03:50;18.60;;;16.73;;
7247;SDS011;3665;51.034;13.642;2022-08-19T07:08:36;20.57;;;18.57;;
7247;SDS011;3665;51.034;13.642;2022-08-19T07:13:24;20.97;;;18.93;;
7247;SDS011;3665;51.034;13.642;2022-08-19T07:18:08;20.13;;;18.13;;
7247;SDS011;3665;51.034;13.642;2022-08-19T07:22:53;19.50;;;17.60;;
7247;SDS011;3665;51.034;13.642;2022-08-19T07:27:38;20.43;;;17.53;;
7247;SDS011;3665;51.034;13.642;2022-08-19T07:32:26;19.63;;;17.70;;
7247;SDS011;3665;51.034;13.642;2022-08-19T07:37:13;19.70;;;17.43;;
7247;SDS011;3665;51.034;13.642;2022-08-19T07:41:58;19.83;;;17.93;;
7247;SDS011;3665;51.034;13.642;2022-08-19T07:46:46;21.80;;;19.60;;
7247;SDS011;3665;51.034;13.642;2022-08-19T07:51:34;21.77;;;19.63;;
7247;SDS011;3665;51.034;13.642;2022-08-19T07:56:18;20.13;;;18.03;;
7247;SDS011;3665;51.034;13.642;2022-08-19T08:01:04;20.40;;;18.50;;
7247;SDS011;3665;51.034;13.642;2022-08-19T08:05:51;19.77;;;17.80;;
7247;SDS011;3665;51.034;13.642;2022-08-19T08:10:52;19.50;;;17.70;;
7247;SDS011;3665;51.034;13.642;2022-08-19T08:15:38;19.77;;;17.90;;
7247;SDS011;3665;51.034;13.642;2022-08-19T08:20:24;19.53;;;17.73;;
7247;SDS011;3665;51.034;13.642;2022-08-19T08:25:10;20.30;;;18.50;;
7247;SDS011;3665;51.034;13.642;2022-08-19T08:29:57;18.53;;;17.00;;
7247;SDS011;3665;51.034;13.642;2022-08-19T08:34:43;16.73;;;15.33;;
7247;SDS011;3665;51.034;13.642;2022-08-19T08:39:33;15.70;;;14.30;;
7247;SDS011;3665;51.034;13.642;2022-08-19T08:44:20;14.80;;;13.60;;
7247;SDS011;3665;51.034;13.642;2022-08-19T08:49:11;14.37;;;13.07;;
7247;SDS011;3665;51.034;13.642;2022-08-19T08:54:04;15.57;;;14.20;;
7247;SDS011;3665;51.034;13.642;2022-08-19T08:58:52;14.83;;;13.63;;
7247;SDS011;3665;51.034;13.642;2022-08-19T09:03:45;16.83;;;15.13;;
7247;SDS011;3665;51.034;13.642;2022-08-19T09:08:36;15.87;;;14.47;;
7247;SDS011;3665;51.034;13.642;2022-08-19T09:13:28;15.97;;;14.50;;
7247;SDS011;3665;51.034;13.642;2022-08-19T09:18:20;16.87;;;15.37;;
7247;SDS011;3665;51.034;13.642;2022-08-19T09:23:05;15.60;;;14.27;;
7247;SDS011;3665;51.034;13.642;2022-08-19T09:27:51;17.30;;;15.60;;
7247;SDS011;3665;51.034;13.642;2022-08-19T09:32:43;15.40;;;13.97;;
7247;SDS011;3665;51.034;13.642;2022-08-19T09:37:34;15.53;;;14.23;;
7247;SDS011;3665;51.034;13.642;2022-08-19T09:42:24;17.20;;;15.60;;
7247;SDS011;3665;51.034;13.642;2022-08-19T09:47:12;15.57;;;14.17;;
7247;SDS011;3665;51.034;13.642;2022-08-19T09:52:01;15.07;;;13.67;;
7247;SDS011;3665;51.034;13.642;2022-08-19T09:56:47;12.80;;;11.70;;
7247;SDS011;3665;51.034;13.642;2022-08-19T10:07:36;11.80;;;10.63;;
7247;SDS011;3665;51.034;13.642;2022-08-19T10:12:20;10.17;;;9.30;;
7247;SDS011;3665;51.034;13.642;2022-08-19T10:17:08;10.57;;;9.67;;
7247;SDS011;3665;51.034;13.642;2022-08-19T10:22:05;10.53;;;9.53;;
7247;SDS011;3665;51.034;13.642;2022-08-19T10:26:54;7.68;;;6.97;;
7247;SDS011;3665;51.034;13.642;2022-08-19T10:31:40;7.18;;;6.55;;
7247;SDS011;3665;51.034;13.642;2022-08-19T10:36:43;6.47;;;5.97;;
7247;SDS011;3665;51.034;13.642;2022-08-19T10:41:37;5.57;;;5.07;;
7247;SDS011;3665;51.034;13.642;2022-08-19T10:46:26;5.60;;;5.15;;
7247;SDS011;3665;51.034;13.642;2022-08-19T10:51:14;4.25;;;3.95;;
7247;SDS011;3665;51.034;13.642;2022-08-19T10:56:16;6.03;;;5.22;;
7247;SDS011;3665;51.034;13.642;2022-08-19T11:01:17;6.80;;;6.28;;
7247;SDS011;3665;51.034;13.642;2022-08-19T11:06:05;6.90;;;6.40;;
7247;SDS011;3665;51.034;13.642;2022-08-19T11:10:51;6.32;;;5.82;;
7247;SDS011;3665;51.034;13.642;2022-08-19T11:15:37;7.90;;;7.30;;
7247;SDS011;3665;51.034;13.642;2022-08-19T11:20:21;8.57;;;7.88;;
7247;SDS011;3665;51.034;13.642;2022-08-19T11:25:08;10.27;;;9.38;;
7247;SDS011;3665;51.034;13.642;2022-08-19T11:29:53;12.25;;;11.35;;
7247;SDS011;3665;51.034;13.642;2022-08-19T11:34:37;12.63;;;11.52;;
7247;SDS011;3665;51.034;13.642;2022-08-19T11:39:21;12.18;;;11.07;;
7247;SDS011;3665;51.034;13.642;2022-08-19T11:44:06;13.50;;;12.32;;
7247;SDS011;3665;51.034;13.642;2022-08-19T11:48:51;13.63;;;12.38;;
7247;SDS011;3665;51.034;13.642;2022-08-19T11:53:36;13.20;;;12.13;;
7247;SDS011;3665;51.034;13.642;2022-08-19T11:58:21;13.98;;;12.82;;
7247;SDS011;3665;51.034;13.642;2022-08-19T12:03:10;16.73;;;15.25;;
7247;SDS011;3665;51.034;13.642;2022-08-19T12:07:55;17.45;;;15.85;;
7247;SDS011;3665;51.034;13.642;2022-08-19T12:12:39;19.23;;;17.52;;
7247;SDS011;3665;51.034;13.642;2022-08-19T12:17:28;21.10;;;19.03;;
7247;SDS011;3665;51.034;13.642;2022-08-19T12:22:14;21.15;;;19.10;;
7247;SDS011;3665;51.034;13.642;2022-08-19T12:26:58;21.23;;;19.23;;
7247;SDS011;3665;51.034;13.642;2022-08-19T12:31:43;21.77;;;19.60;;
7247;SDS011;3665;51.034;13.642;2022-08-19T12:36:27;19.63;;;17.60;;
7247;SDS011;3665;51.034;13.642;2022-08-19T12:41:13;21.17;;;19.17;;
7247;SDS011;3665;51.034;13.642;2022-08-19T12:46:00;21.67;;;19.60;;
7247;SDS011;3665;51.034;13.642;2022-08-19T12:50:45;23.90;;;21.70;;
7247;SDS011;3665;51.034;13.642;2022-08-19T12:55:28;24.25;;;21.95;;
7247;SDS011;3665;51.034;13.642;2022-08-19T13:00:15;20.88;;;18.90;;
7247;SDS011;3665;51.034;13.642;2022-08-19T13:05:03;20.93;;;19.03;;
7247;SDS011;3665;51.034;13.642;2022-08-19T13:09:50;20.50;;;18.70;;
7247;SDS011;3665;51.034;13.642;2022-08-19T13:14:39;23.17;;;21.10;;
7247;SDS011;3665;51.034;13.642;2022-08-19T13:19:25;21.93;;;19.90;;
7247;SDS011;3665;51.034;13.642;2022-08-19T13:24:08;21.50;;;19.47;;
7247;SDS011;3665;51.034;13.642;2022-08-19T13:28:52;24.97;;;22.47;;
7247;SDS011;3665;51.034;13.642;2022-08-19T13:33:53;23.93;;;21.80;;
7247;SDS011;3665;51.034;13.642;2022-08-19T13:38:38;26.53;;;23.93;;
7247;SDS011;3665;51.034;13.642;2022-08-19T13:43:23;30.40;;;27.20;;
7247;SDS011;3665;51.034;13.642;2022-08-19T13:48:09;36.47;;;32.67;;
7247;SDS011;3665;51.034;13.642;2022-08-19T13:52:53;35.57;;;31.77;;
7247;SDS011;3665;51.034;13.642;2022-08-19T13:57:39;34.30;;;30.77;;
7247;SDS011;3665;51.034;13.642;2022-08-19T14:02:24;30.60;;;27.53;;
7247;SDS011;3665;51.034;13.642;2022-08-19T14:07:07;31.63;;;28.53;;
7247;SDS011;3665;51.034;13.642;2022-08-19T14:11:52;32.43;;;29.33;;
7247;SDS011;3665;51.034;13.642;2022-08-19T14:16:38;31.77;;;28.40;;
7247;SDS011;3665;51.034;13.642;2022-08-19T14:21:31;31.00;;;27.73;;
7247;SDS011;3665;51.034;13.642;2022-08-19T14:26:22;32.13;;;28.10;;
7247;SDS011;3665;51.034;13.642;2022-08-19T14:31:07;29.63;;;26.53;;
7247;SDS011;3665;51.034;13.642;2022-08-19T14:35:52;31.63;;;28.37;;
7247;SDS011;3665;51.034;13.642;2022-08-19T14:40:40;33.73;;;30.10;;
7247;SDS011;3665;51.034;13.642;2022-08-19T14:45:24;33.60;;;30.27;;
7247;SDS011;3665;51.034;13.642;2022-08-19T14:50:09;36.63;;;30.83;;
7247;SDS011;3665;51.034;13.642;2022-08-19T14:55:00;32.70;;;29.30;;
7247;SDS011;3665;51.034;13.642;2022-08-19T14:59:48;28.73;;;25.73;;
7247;SDS011;3665;51.034;13.642;2022-08-19T15:04:32;30.70;;;27.70;;
7247;SDS011;3665;51.034;13.642;2022-08-19T15:09:16;31.00;;;27.87;;
7247;SDS011;3665;51.034;13.642;2022-08-19T15:14:01;29.07;;;26.17;;
7247;SDS011;3665;51.034;13.642;2022-08-19T15:18:45;27.57;;;24.87;;
7247;SDS011;3665;51.034;13.642;2022-08-19T15:23:31;27.13;;;24.53;;
7247;SDS011;3665;51.034;13.642;2022-08-19T15:28:15;27.10;;;24.40;;
7247;SDS011;3665;51.034;13.642;2022-08-19T15:33:01;27.47;;;24.67;;
7247;SDS011;3665;51.034;13.642;2022-08-19T15:37:44;24.67;;;22.13;;
7247;SDS011;3665;51.034;13.642;2022-08-19T15:42:30;24.30;;;22.03;;
7247;SDS011;3665;51.034;13.642;2022-08-19T15:47:15;24.20;;;21.90;;
7247;SDS011;3665;51.034;13.642;2022-08-19T15:52:02;24.23;;;21.93;;
7247;SDS011;3665;51.034;13.642;2022-08-19T15:56:48;25.30;;;22.70;;
7247;SDS011;3665;51.034;13.642;2022-08-19T16:01:50;22.50;;;20.20;;
7247;SDS011;3665;51.034;13.642;2022-08-19T16:06:54;22.00;;;20.00;;
7247;SDS011;3665;51.034;13.642;2022-08-19T16:11:40;23.20;;;21.10;;
7247;SDS011;3665;51.034;13.642;2022-08-19T16:16:27;23.67;;;21.27;;
7247;SDS011;3665;51.034;13.642;2022-08-19T16:21:14;25.30;;;22.73;;
7247;SDS011;3665;51.034;13.642;2022-08-19T16:25:58;24.13;;;21.73;;
7247;SDS011;3665;51.034;13.642;2022-08-19T16:30:44;23.43;;;21.03;;
7247;SDS011;3665;51.034;13.642;2022-08-19T16:35:31;24.13;;;21.67;;
7247;SDS011;3665;51.034;13.642;2022-08-19T16:40:15;22.50;;;20.40;;
7247;SDS011;3665;51.034;13.642;2022-08-19T16:44:59;21.40;;;19.33;;
7247;SDS011;3665;51.034;13.642;2022-08-19T16:49:45;23.03;;;20.63;;
7247;SDS011;3665;51.034;13.642;2022-08-19T16:54:36;20.53;;;18.60;;
7247;SDS011;3665;51.034;13.642;2022-08-19T16:59:20;24.23;;;21.73;;
7247;SDS011;3665;51.034;13.642;2022-08-19T17:04:28;23.97;;;21.53;;
7247;SDS011;3665;51.034;13.642;2022-08-19T17:09:13;23.57;;;21.23;;
7247;SDS011;3665;51.034;13.642;2022-08-19T17:14:06;21.73;;;19.63;;
7247;SDS011;3665;51.034;13.642;2022-08-19T17:18:51;20.13;;;18.13;;
7247;SDS011;3665;51.034;13.642;2022-08-19T17:23:35;23.03;;;20.83;;
7247;SDS011;3665;51.034;13.642;2022-08-19T17:28:27;22.10;;;20.10;;
7247;SDS011;3665;51.034;13.642;2022-08-19T17:33:13;22.73;;;20.57;;
7247;SDS011;3665;51.034;13.642;2022-08-19T17:37:57;22.70;;;20.60;;
7247;SDS011;3665;51.034;13.642;2022-08-19T17:42:45;22.57;;;20.50;;
7247;SDS011;3665;51.034;13.642;2022-08-19T17:47:30;22.93;;;20.63;;
7247;SDS011;3665;51.034;13.642;2022-08-19T17:52:14;24.00;;;21.50;;
7247;SDS011;3665;51.034;13.642;2022-08-19T17:56:57;24.47;;;21.87;;
7247;SDS011;3665;51.034;13.642;2022-08-19T18:01:42;25.17;;;22.47;;
7247;SDS011;3665;51.034;13.642;2022-08-19T18:06:36;23.53;;;21.33;;
7247;SDS011;3665;51.034;13.642;2022-08-19T18:11:20;22.60;;;20.27;;
7247;SDS011;3665;51.034;13.642;2022-08-19T18:16:04;24.67;;;22.17;;
7247;SDS011;3665;51.034;13.642;2022-08-19T18:20:53;23.23;;;20.87;;
7247;SDS011;3665;51.034;13.642;2022-08-19T18:25:41;23.23;;;20.77;;
7247;SDS011;3665;51.034;13.642;2022-08-19T18:30:26;24.57;;;21.97;;
7247;SDS011;3665;51.034;13.642;2022-08-19T18:35:15;24.00;;;21.63;;
7247;SDS011;3665;51.034;13.642;2022-08-19T18:40:01;21.90;;;19.70;;
7247;SDS011;3665;51.034;13.642;2022-08-19T18:45:05;26.27;;;23.10;;
7247;SDS011;3665;51.034;13.642;2022-08-19T18:50:07;27.03;;;24.30;;
7247;SDS011;3665;51.034;13.642;2022-08-19T18:54:54;30.43;;;27.33;;
7247;SDS011;3665;51.034;13.642;2022-08-19T18:59:40;30.20;;;27.03;;
7247;SDS011;3665;51.034;13.642;2022-08-19T19:04:26;31.47;;;27.93;;
7247;SDS011;3665;51.034;13.642;2022-08-19T19:09:13;33.67;;;30.20;;
7247;SDS011;3665;51.034;13.642;2022-08-19T19:13:59;34.50;;;30.27;;
7247;SDS011;3665;51.034;13.642;2022-08-19T19:18:44;34.97;;;30.90;;
7247;SDS011;3665;51.034;13.642;2022-08-19T19:23:29;32.93;;;29.30;;
7247;SDS011;3665;51.034;13.642;2022-08-19T19:28:12;31.13;;;27.73;;
7247;SDS011;3665;51.034;13.642;2022-08-19T19:32:56;30.13;;;26.93;;
7247;SDS011;3665;51.034;13.642;2022-08-19T19:37:42;28.07;;;25.23;;
7247;SDS011;3665;51.034;13.642;2022-08-19T19:42:27;32.07;;;28.00;;
7247;SDS011;3665;51.034;13.642;2022-08-19T19:47:11;30.33;;;27.23;;
7247;SDS011;3665;51.034;13.642;2022-08-19T19:51:56;30.60;;;24.37;;
7247;SDS011;3665;51.034;13.642;2022-08-19T19:56:40;29.80;;;26.70;;
7247;SDS011;3665;51.034;13.642;2022-08-19T20:01:27;28.70;;;25.70;;
7247;SDS011;3665;51.034;13.642;2022-08-19T20:06:12;29.50;;;26.23;;
7247;SDS011;3665;51.034;13.642;2022-08-19T20:10:59;28.50;;;25.47;;
7247;SDS011;3665;51.034;13.642;2022-08-19T20:15:43;27.80;;;24.60;;
7247;SDS011;3665;51.034;13.642;2022-08-19T20:20:28;34.43;;;26.07;;
7247;SDS011;3665;51.034;13.642;2022-08-19T20:25:13;28.80;;;23.60;;
7247;SDS011;3665;51.034;13.642;2022-08-19T20:29:57;27.07;;;24.27;;
7247;SDS011;3665;51.034;13.642;2022-08-19T20:34:44;25.37;;;22.63;;
7247;SDS011;3665;51.034;13.642;2022-08-19T20:39:31;26.33;;;23.27;;
7247;SDS011;3665;51.034;13.642;2022-08-19T20:44:14;24.43;;;21.80;;
7247;SDS011;3665;51.034;13.642;2022-08-19T20:48:58;24.47;;;21.97;;
7247;SDS011;3665;51.034;13.642;2022-08-19T20:53:55;23.40;;;20.80;;
7247;SDS011;3665;51.034;13.642;2022-08-19T20:58:41;24.53;;;21.87;;
7247;SDS011;3665;51.034;13.642;2022-08-19T21:03:32;26.87;;;21.87;;
7247;SDS011;3665;51.034;13.642;2022-08-19T21:08:24;25.00;;;22.47;;
7247;SDS011;3665;51.034;13.642;2022-08-19T21:13:09;23.20;;;20.80;;
7247;SDS011;3665;51.034;13.642;2022-08-19T21:17:54;26.70;;;23.13;;
7247;SDS011;3665;51.034;13.642;2022-08-19T21:22:38;24.43;;;21.47;;
7247;SDS011;3665;51.034;13.642;2022-08-19T21:27:22;25.57;;;22.80;;
7247;SDS011;3665;51.034;13.642;2022-08-19T21:32:06;26.47;;;22.63;;
7247;SDS011;3665;51.034;13.642;2022-08-19T21:36:56;24.90;;;21.90;;
7247;SDS011;3665;51.034;13.642;2022-08-19T21:41:40;24.23;;;21.60;;
7247;SDS011;3665;51.034;13.642;2022-08-19T21:46:24;21.53;;;19.20;;
7247;SDS011;3665;51.034;13.642;2022-08-19T21:51:08;25.23;;;22.53;;
7247;SDS011;3665;51.034;13.642;2022-08-19T21:55:53;25.03;;;21.80;;
7247;SDS011;3665;51.034;13.642;2022-08-19T22:00:37;26.70;;;23.33;;
7247;SDS011;3665;51.034;13.642;2022-08-19T22:05:21;24.67;;;22.17;;
7247;SDS011;3665;51.034;13.642;2022-08-19T22:10:05;27.93;;;23.93;;
7247;SDS011;3665;51.034;13.642;2022-08-19T22:14:52;25.83;;;22.90;;
7247;SDS011;3665;51.034;13.642;2022-08-19T22:19:36;27.93;;;24.83;;
7247;SDS011;3665;51.034;13.642;2022-08-19T22:24:19;28.00;;;24.00;;
7247;SDS011;3665;51.034;13.642;2022-08-19T22:29:03;29.30;;;25.10;;
7247;SDS011;3665;51.034;13.642;2022-08-19T22:33:48;28.10;;;24.73;;
7247;SDS011;3665;51.034;13.642;2022-08-19T22:38:33;30.10;;;25.70;;
7247;SDS011;3665;51.034;13.642;2022-08-19T22:43:18;27.60;;;23.50;;
7247;SDS011;3665;51.034;13.642;2022-08-19T22:48:05;28.03;;;23.00;;
7247;SDS011;3665;51.034;13.642;2022-08-19T22:52:55;31.03;;;23.93;;
7247;SDS011;3665;51.034;13.642;2022-08-19T22:57:39;27.13;;;24.17;;
7247;SDS011;3665;51.034;13.642;2022-08-19T23:02:26;29.07;;;24.47;;
7247;SDS011;3665;51.034;13.642;2022-08-19T23:07:12;31.90;;;24.17;;
7247;SDS011;3665;51.034;13.642;2022-08-19T23:11:57;26.30;;;23.33;;
7247;SDS011;3665;51.034;13.642;2022-08-19T23:16:41;26.97;;;21.87;;
7247;SDS011;3665;51.034;13.642;2022-08-19T23:21:31;25.90;;;22.30;;
7247;SDS011;3665;51.034;13.642;2022-08-19T23:26:15;29.20;;;24.43;;
7247;SDS011;3665;51.034;13.642;2022-08-19T23:31:00;27.97;;;24.30;;
7247;SDS011;3665;51.034;13.642;2022-08-19T23:35:44;26.03;;;23.33;;
7247;SDS011;3665;51.034;13.642;2022-08-19T23:40:27;28.17;;;23.77;;
7247;SDS011;3665;51.034;13.642;2022-08-19T23:45:12;29.00;;;25.10;;
7247;SDS011;3665;51.034;13.642;2022-08-19T23:50:06;27.80;;;23.93;;
7247;SDS011;3665;51.034;13.642;2022-08-19T23:54:51;30.77;;;25.57;;
7247;SDS011;3665;51.034;13.642;2022-08-19T23:59:40;31.20;;;25.47;;
